Time;durP1;ratioP1;P1;durP2;ratioP2;P2;SDS_P1;SDS_P2;PMS_P1;PMS_P2;Temp;Humidity;BMP_temperature;BMP_pressure;BME280_temperature;BME280_humidity;BME280_pressure;Samples;Min_cycle;Max_cycle;Signal;HPM_P1;HPM_P2
2023/08/19 00:00:22;;;;;;;5.47;3.78;;;21.50;99.90;;;;;;4994820;28;20437;-80
2023/08/19 00:02:49;;;;;;;5.23;4.00;;;21.40;99.90;;;;;;4995107;28;20402;-80
2023/08/19 00:05:14;;;;;;;5.13;4.00;;;21.20;99.90;;;;;;4995446;28;20387;-81
2023/08/19 00:07:40;;;;;;;4.30;3.90;;;21.20;99.90;;;;;;5013322;28;20459;-81
2023/08/19 00:10:06;;;;;;;6.20;4.20;;;21.20;99.90;;;;;;5014123;28;20408;-81
2023/08/19 00:12:32;;;;;;;5.88;4.07;;;21.10;99.90;;;;;;5014873;28;20400;-80
2023/08/19 00:14:57;;;;;;;5.22;4.28;;;21.10;99.90;;;;;;5014229;28;20471;-80
2023/08/19 00:17:23;;;;;;;4.30;3.90;;;21.10;99.90;;;;;;5009028;28;20416;-80
2023/08/19 00:19:49;;;;;;;4.55;3.83;;;21.10;99.90;;;;;;5016140;28;20400;-79
2023/08/19 00:22:15;;;;;;;8.35;4.25;;;21.00;99.90;;;;;;5033348;28;20461;-79
2023/08/19 00:24:41;;;;;;;5.07;4.38;;;20.90;99.90;;;;;;5025155;28;20389;-80
2023/08/19 00:27:06;;;;;;;4.65;4.25;;;21.10;99.90;;;;;;5007010;28;20403;-80
2023/08/19 00:29:32;;;;;;;4.80;4.00;;;21.00;99.90;;;;;;5002072;28;20416;-80
2023/08/19 00:31:57;;;;;;;4.85;4.35;;;21.00;99.90;;;;;;5000816;28;20398;-80
2023/08/19 00:34:23;;;;;;;5.73;4.33;;;21.00;99.90;;;;;;4998817;28;20393;-81
2023/08/19 00:36:49;;;;;;;4.70;4.30;;;21.00;99.90;;;;;;4996487;28;20406;-81
2023/08/19 00:39:14;;;;;;;5.30;4.35;;;20.90;99.90;;;;;;4995523;28;20395;-81
2023/08/19 00:41:40;;;;;;;7.80;4.70;;;20.80;99.90;;;;;;5003184;28;20396;-81
2023/08/19 00:44:07;;;;;;;4.60;4.20;;;20.90;99.90;;;;;;5002374;28;20394;-81
2023/08/19 00:46:33;;;;;;;4.90;4.37;;;20.90;99.90;;;;;;4995964;28;20766;-81
2023/08/19 00:49:00;;;;;;;4.55;4.15;;;20.90;99.90;;;;;;5014338;28;20385;-80
2023/08/19 00:51:26;;;;;;;5.20;4.70;;;20.80;99.90;;;;;;5015326;28;20459;-80
2023/08/19 00:53:53;;;;;;;4.70;4.20;;;20.80;99.90;;;;;;5014805;28;20397;-80
2023/08/19 00:56:19;;;;;;;5.15;4.20;;;20.70;99.90;;;;;;5012833;28;20397;-80
2023/08/19 00:58:45;;;;;;;8.40;5.10;;;20.60;99.90;;;;;;4995737;28;20403;-80
2023/08/19 01:01:11;;;;;;;6.75;4.53;;;20.60;99.90;;;;;;5011716;28;20400;-81
2023/08/19 01:03:37;;;;;;;5.10;4.60;;;20.60;99.90;;;;;;5011303;28;20389;-80
2023/08/19 01:06:06;;;;;;;12.10;4.60;;;20.60;99.90;;;;;;5012133;28;20420;-80
2023/08/19 01:08:55;;;;;;;5.68;4.50;;;20.50;99.90;;;;;;5011627;28;20384;-79
2023/08/19 01:11:45;;;;;;;10.15;4.85;;;20.60;99.90;;;;;;4979092;28;20414;-79
2023/08/19 01:14:20;;;;;;;6.45;4.60;;;20.70;99.90;;;;;;4992425;28;20386;-79
2023/08/19 01:16:50;;;;;;;4.57;3.70;;;20.70;99.90;;;;;;4991337;28;20842;-79
2023/08/19 01:19:29;;;;;;;6.93;4.13;;;20.60;99.90;;;;;;4991049;28;20921;-80
2023/08/19 01:22:02;;;;;;;6.73;4.60;;;20.80;99.90;;;;;;4992745;28;20861;-80
2023/08/19 01:24:35;;;;;;;4.97;4.47;;;20.70;99.90;;;;;;4991150;28;20405;-79
2023/08/19 01:27:05;;;;;;;5.20;4.07;;;20.80;99.90;;;;;;4990990;28;20485;-80
2023/08/19 01:29:31;;;;;;;5.65;4.20;;;20.80;99.90;;;;;;4992260;28;20387;-80
2023/08/19 01:31:57;;;;;;;7.60;4.32;;;20.80;99.90;;;;;;4992748;28;20921;-80
2023/08/19 01:34:24;;;;;;;5.25;3.90;;;20.90;99.90;;;;;;4991868;28;20382;-80
2023/08/19 01:36:56;;;;;;;5.32;3.92;;;20.70;99.90;;;;;;4992040;28;20447;-81
2023/08/19 01:39:24;;;;;;;5.55;4.30;;;20.80;99.90;;;;;;5005708;28;20410;-79
2023/08/19 01:41:50;;;;;;;6.43;4.60;;;20.80;99.90;;;;;;5012764;28;20413;-80
2023/08/19 01:44:16;;;;;;;6.00;4.40;;;20.80;99.90;;;;;;5019380;28;20476;-79
2023/08/19 01:46:41;;;;;;;4.90;4.40;;;20.80;99.90;;;;;;5033126;28;20389;-80
2023/08/19 01:49:07;;;;;;;5.60;5.10;;;20.80;99.90;;;;;;5017137;28;20899;-80
2023/08/19 01:51:33;;;;;;;5.65;4.20;;;20.70;99.90;;;;;;5011344;28;20392;-80
2023/08/19 01:53:58;;;;;;;4.38;3.92;;;20.70;99.90;;;;;;5016249;28;20487;-81
2023/08/19 01:56:25;;;;;;;5.67;4.40;;;20.70;99.90;;;;;;5021285;28;20436;-79
2023/08/19 01:58:51;;;;;;;5.32;4.43;;;20.70;99.90;;;;;;5030196;28;20468;-79
2023/08/19 02:01:17;;;;;;;4.70;4.30;;;20.70;99.90;;;;;;5017469;28;20413;-80
2023/08/19 02:03:42;;;;;;;4.97;4.47;;;20.70;99.90;;;;;;4995995;28;20446;-81
2023/08/19 02:06:08;;;;;;;6.17;4.27;;;20.60;99.90;;;;;;4995499;28;20405;-81
2023/08/19 02:08:33;;;;;;;5.32;4.70;;;20.60;99.90;;;;;;4995344;28;20402;-80
2023/08/19 02:10:59;;;;;;;5.40;4.90;;;20.50;99.90;;;;;;4998121;28;20394;-81
2023/08/19 02:13:24;;;;;;;5.40;4.40;;;20.50;99.90;;;;;;4996417;28;20390;-79
2023/08/19 02:15:50;;;;;;;6.63;4.80;;;20.40;99.90;;;;;;4994792;28;20406;-81
2023/08/19 02:18:17;;;;;;;4.50;3.92;;;20.40;99.90;;;;;;4992814;28;20563;-81
2023/08/19 02:20:47;;;;;;;4.70;4.18;;;20.50;99.90;;;;;;4993975;28;20542;-80
2023/08/19 02:23:12;;;;;;;5.60;4.90;;;20.50;99.90;;;;;;4994442;28;20404;-81
2023/08/19 02:25:38;;;;;;;6.33;4.50;;;20.50;99.90;;;;;;4994010;28;20399;-81
2023/08/19 02:28:04;;;;;;;5.72;4.72;;;20.50;99.90;;;;;;4992972;28;20466;-81
2023/08/19 02:30:31;;;;;;;4.80;4.20;;;20.50;99.90;;;;;;4998206;28;20404;-80
2023/08/19 02:33:03;;;;;;;4.97;4.47;;;20.40;99.90;;;;;;5012313;28;20419;-80
2023/08/19 02:35:28;;;;;;;7.03;4.40;;;20.40;99.90;;;;;;5013044;28;20407;-81
2023/08/19 02:37:54;;;;;;;6.22;4.60;;;20.40;99.90;;;;;;5013745;28;20397;-81
2023/08/19 02:40:19;;;;;;;5.70;4.90;;;20.40;99.90;;;;;;5006171;28;20757;-80
2023/08/19 02:42:45;;;;;;;6.70;4.40;;;20.40;99.90;;;;;;4993321;28;20398;-80
2023/08/19 02:45:11;;;;;;;6.20;4.50;;;20.30;99.90;;;;;;4997552;28;20401;-80
2023/08/19 02:47:36;;;;;;;5.05;4.10;;;20.30;99.90;;;;;;4996935;28;20481;-81
2023/08/19 02:50:02;;;;;;;5.53;4.80;;;20.30;99.90;;;;;;5024623;22;20397;-82
2023/08/19 02:52:27;;;;;;;5.57;4.47;;;20.20;99.90;;;;;;5034692;28;20405;-81
2023/08/19 02:54:53;;;;;;;5.60;4.77;;;20.20;99.90;;;;;;5047153;28;20844;-80
2023/08/19 02:57:18;;;;;;;5.63;4.80;;;20.20;99.90;;;;;;5052471;28;20415;-79
2023/08/19 02:59:44;;;;;;;5.27;4.77;;;20.30;99.90;;;;;;5053243;28;20385;-78
2023/08/19 03:02:09;;;;;;;6.13;4.40;;;20.30;99.90;;;;;;5053803;28;20389;-79
2023/08/19 03:04:35;;;;;;;5.33;4.53;;;20.20;99.90;;;;;;5053008;28;20868;-78
2023/08/19 03:07:00;;;;;;;7.57;5.20;;;20.30;99.90;;;;;;5045206;28;20925;-79
2023/08/19 03:09:26;;;;;;;5.10;4.60;;;20.30;99.90;;;;;;5033242;28;20474;-80
2023/08/19 03:11:53;;;;;;;5.00;4.50;;;20.20;99.90;;;;;;5033568;28;20399;-81
2023/08/19 03:14:18;;;;;;;8.73;4.60;;;20.30;99.90;;;;;;5033819;28;20955;-79
2023/08/19 03:16:44;;;;;;;7.15;4.45;;;20.30;99.90;;;;;;5038212;28;20492;-80
2023/08/19 03:19:10;;;;;;;5.37;4.40;;;20.20;99.90;;;;;;5048718;28;20402;-80
2023/08/19 03:21:35;;;;;;;5.90;4.45;;;20.20;99.90;;;;;;5032939;28;20383;-80
2023/08/19 03:24:01;;;;;;;5.03;4.00;;;20.20;99.90;;;;;;5032731;28;20379;-80
2023/08/19 03:26:26;;;;;;;5.65;4.28;;;20.10;99.90;;;;;;5032630;28;20843;-80
2023/08/19 03:28:51;;;;;;;6.00;4.30;;;20.00;99.90;;;;;;5033358;28;20438;-79
2023/08/19 03:31:17;;;;;;;4.70;4.30;;;19.90;99.90;;;;;;5033368;28;20434;-79
2023/08/19 03:33:42;;;;;;;5.00;4.50;;;19.90;99.90;;;;;;5032772;28;20533;-79
2023/08/19 03:36:08;;;;;;;5.70;4.60;;;19.80;99.90;;;;;;5032054;28;20391;-79
2023/08/19 03:38:34;;;;;;;5.00;4.50;;;19.80;99.90;;;;;;5031670;28;20400;-79
2023/08/19 03:40:59;;;;;;;6.43;4.90;;;19.80;99.90;;;;;;5032893;28;21072;-80
2023/08/19 03:43:24;;;;;;;4.90;4.40;;;19.80;99.90;;;;;;5033044;28;20387;-79
2023/08/19 03:45:50;;;;;;;4.80;4.30;;;19.80;99.90;;;;;;5033577;28;20441;-80
2023/08/19 03:48:15;;;;;;;4.55;4.15;;;19.80;99.90;;;;;;5045369;28;20818;-78
2023/08/19 03:50:41;;;;;;;5.10;4.10;;;19.60;99.90;;;;;;5048479;28;20435;-79
2023/08/19 03:53:06;;;;;;;5.97;4.20;;;19.60;99.90;;;;;;5048666;28;20401;-80
2023/08/19 03:55:32;;;;;;;5.80;4.40;;;19.70;99.90;;;;;;5051277;28;20390;-78
2023/08/19 03:57:58;;;;;;;4.70;4.30;;;19.60;99.90;;;;;;5051314;28;20396;-79
2023/08/19 04:00:24;;;;;;;6.68;4.22;;;19.50;99.90;;;;;;5051285;28;20380;-79
2023/08/19 04:02:49;;;;;;;5.40;4.10;;;19.50;99.90;;;;;;5032335;28;20925;-80
2023/08/19 04:05:15;;;;;;;5.07;4.10;;;19.60;99.90;;;;;;5031033;28;20411;-80
2023/08/19 04:07:41;;;;;;;4.97;4.22;;;19.40;99.90;;;;;;5048335;28;20480;-79
2023/08/19 04:10:08;;;;;;;6.47;4.47;;;19.40;99.90;;;;;;5051706;28;20887;-80
2023/08/19 04:12:33;;;;;;;5.45;4.28;;;19.40;99.90;;;;;;5051614;28;20799;-80
2023/08/19 04:14:59;;;;;;;7.20;4.70;;;19.50;99.90;;;;;;5052275;28;20480;-79
2023/08/19 04:17:25;;;;;;;5.10;4.20;;;19.60;99.90;;;;;;5037746;28;20770;-80
2023/08/19 04:19:51;;;;;;;4.65;3.88;;;19.60;99.90;;;;;;5031895;28;20478;-79
2023/08/19 04:22:16;;;;;;;5.10;4.60;;;19.50;99.90;;;;;;5048825;28;20397;-79
2023/08/19 04:24:43;;;;;;;6.37;4.50;;;19.40;99.90;;;;;;5051131;28;20460;-79
2023/08/19 04:27:08;;;;;;;5.15;4.28;;;19.50;99.90;;;;;;5052047;28;20381;-79
2023/08/19 04:29:34;;;;;;;4.77;4.37;;;19.40;99.90;;;;;;5051850;28;20438;-79
2023/08/19 04:32:01;;;;;;;5.27;4.37;;;19.40;99.90;;;;;;5048110;28;20408;-79
2023/08/19 04:34:27;;;;;;;4.90;4.40;;;19.40;99.90;;;;;;5050779;28;20880;-79
2023/08/19 04:36:52;;;;;;;5.95;4.60;;;19.30;99.90;;;;;;5051862;28;20397;-78
2023/08/19 04:39:18;;;;;;;4.78;4.22;;;19.50;99.90;;;;;;5050390;28;20884;-79
2023/08/19 04:41:43;;;;;;;6.07;4.70;;;19.40;99.90;;;;;;5042781;28;20817;-79
2023/08/19 04:44:09;;;;;;;5.00;4.40;;;19.40;99.90;;;;;;5030643;28;20461;-80
2023/08/19 04:46:35;;;;;;;5.90;4.28;;;19.40;99.90;;;;;;5031869;28;20403;-79
2023/08/19 04:49:00;;;;;;;5.90;4.50;;;19.50;99.90;;;;;;5032150;28;20390;-78
2023/08/19 04:51:26;;;;;;;5.88;4.65;;;19.40;99.90;;;;;;5032060;28;20438;-79
2023/08/19 04:53:52;;;;;;;4.70;4.10;;;19.50;99.90;;;;;;5035239;28;20480;-80
2023/08/19 04:56:18;;;;;;;7.65;4.68;;;19.50;99.90;;;;;;5050926;28;20393;-79
2023/08/19 04:58:44;;;;;;;6.35;3.90;;;19.60;99.90;;;;;;5051672;28;20405;-79
2023/08/19 05:01:09;;;;;;;5.20;4.27;;;19.60;99.90;;;;;;5049560;28;20381;-78
2023/08/19 05:03:35;;;;;;;6.80;4.35;;;19.80;99.90;;;;;;5032397;28;20476;-79
2023/08/19 05:06:00;;;;;;;4.90;4.00;;;19.80;99.90;;;;;;5031728;28;20391;-78
2023/08/19 05:08:26;;;;;;;4.23;3.70;;;19.80;99.90;;;;;;5030871;28;20970;-80
2023/08/19 05:10:51;;;;;;;4.90;4.50;;;19.70;99.90;;;;;;5030633;28;20393;-79
2023/08/19 05:13:17;;;;;;;6.03;4.00;;;19.70;99.90;;;;;;5048996;28;20750;-80
2023/08/19 05:15:42;;;;;;;5.50;4.50;;;19.60;99.90;;;;;;5051191;28;20436;-78
2023/08/19 05:18:08;;;;;;;5.30;4.07;;;19.70;99.90;;;;;;5040093;28;20395;-78
2023/08/19 05:20:33;;;;;;;4.25;3.85;;;19.70;99.90;;;;;;5030874;28;20410;-79
2023/08/19 05:22:59;;;;;;;6.93;4.83;;;19.60;99.90;;;;;;5031540;28;20882;-79
2023/08/19 05:25:24;;;;;;;5.20;4.60;;;19.70;99.90;;;;;;5031612;28;20458;-78
2023/08/19 05:27:50;;;;;;;6.37;4.20;;;19.70;99.90;;;;;;5037265;28;20424;-79
2023/08/19 05:30:15;;;;;;;5.30;4.23;;;19.60;99.90;;;;;;5051245;28;20476;-79
2023/08/19 05:32:41;;;;;;;6.47;4.27;;;19.60;99.90;;;;;;5049560;28;20396;-79
2023/08/19 05:35:07;;;;;;;4.60;4.20;;;19.60;99.90;;;;;;5032204;28;20403;-80
2023/08/19 05:37:32;;;;;;;4.75;3.78;;;19.70;99.90;;;;;;5013599;28;20404;-80
2023/08/19 05:39:58;;;;;;;4.80;4.40;;;19.70;99.90;;;;;;5010816;28;20479;-79
2023/08/19 05:42:24;;;;;;;6.60;4.10;;;19.80;99.90;;;;;;5010716;28;20395;-79
2023/08/19 05:44:49;;;;;;;5.07;4.47;;;19.90;99.90;;;;;;5044706;28;20393;-80
2023/08/19 05:47:15;;;;;;;4.38;3.80;;;20.00;99.90;;;;;;5055129;28;20404;-79
2023/08/19 05:49:41;;;;;;;4.40;3.60;;;20.10;99.90;;;;;;5055596;28;20745;-80
2023/08/19 05:52:06;;;;;;;5.82;4.30;;;20.00;99.90;;;;;;5052653;28;20401;-79
2023/08/19 05:54:32;;;;;;;5.90;4.20;;;20.10;99.90;;;;;;5053964;28;20417;-79
2023/08/19 05:56:58;;;;;;;6.17;4.33;;;20.20;99.90;;;;;;5056239;28;20471;-79
2023/08/19 05:59:23;;;;;;;4.67;3.93;;;20.30;99.90;;;;;;5035505;28;20845;-79
2023/08/19 06:01:49;;;;;;;4.70;4.20;;;20.40;99.90;;;;;;5035522;28;20391;-79
2023/08/19 06:04:15;;;;;;;5.23;3.90;;;20.50;99.90;;;;;;5032673;28;20459;-80
2023/08/19 06:06:41;;;;;;;4.53;3.90;;;20.50;99.90;;;;;;5034927;28;20780;-80
2023/08/19 06:09:07;;;;;;;5.00;4.40;;;20.50;99.90;;;;;;5044659;28;20398;-79
2023/08/19 06:11:33;;;;;;;7.20;4.30;;;20.50;99.90;;;;;;5031555;28;20387;-80
2023/08/19 06:13:58;;;;;;;5.70;4.03;;;20.60;99.90;;;;;;5034155;28;20903;-80
2023/08/19 06:16:24;;;;;;;4.40;3.88;;;20.70;99.90;;;;;;5032923;28;20939;-80
2023/08/19 06:18:50;;;;;;;4.60;4.20;;;20.80;99.90;;;;;;5039552;28;20399;-81
2023/08/19 06:21:17;;;;;;;4.00;3.65;;;21.00;99.90;;;;;;5054695;28;20876;-81
2023/08/19 06:23:42;;;;;;;6.15;4.25;;;21.10;99.90;;;;;;5058437;28;20378;-81
2023/08/19 06:26:08;;;;;;;4.40;4.00;;;21.20;99.90;;;;;;5057707;28;20380;-81
2023/08/19 06:28:34;;;;;;;6.20;4.00;;;21.30;99.90;;;;;;5055495;28;20394;-80
2023/08/19 06:30:59;;;;;;;7.45;4.25;;;21.40;99.90;;;;;;5054738;28;20424;-80
2023/08/19 06:33:27;;;;;;;4.43;3.90;;;21.50;99.90;;;;;;5062636;28;20400;-82
2023/08/19 06:35:57;;;;;;;4.93;3.88;;;21.50;99.90;;;;;;5055801;28;20876;-81
2023/08/19 06:38:33;;;;;;;6.38;4.00;;;21.50;99.90;;;;;;5055092;28;20392;-82
2023/08/19 06:41:04;;;;;;;4.57;3.90;;;21.60;99.90;;;;;;5055709;28;20871;-81
2023/08/19 06:43:31;;;;;;;4.40;3.80;;;21.70;99.90;;;;;;5039544;28;20431;-80
2023/08/19 06:45:57;;;;;;;5.17;4.20;;;21.80;99.90;;;;;;5036903;28;20390;-81
2023/08/19 06:48:23;;;;;;;5.80;3.93;;;21.90;99.90;;;;;;5035386;28;20395;-82
2023/08/19 06:50:53;;;;;;;5.10;4.20;;;21.90;99.90;;;;;;5035982;28;20402;-81
2023/08/19 06:53:19;;;;;;;4.50;3.95;;;21.90;99.90;;;;;;5034261;28;20387;-81
2023/08/19 06:56:16;;;;;;;7.97;4.70;;;22.20;99.90;;;;;;5034922;28;20394;-81
2023/08/19 06:58:47;;;;;;;5.13;3.92;;;22.40;99.90;;;;;;5043425;28;20447;-80
2023/08/19 07:01:19;;;;;;;6.10;4.30;;;22.50;99.90;;;;;;5051764;28;20399;-80
2023/08/19 07:03:45;;;;;;;4.63;4.22;;;22.60;99.90;;;;;;5036113;28;20391;-80
2023/08/19 07:06:15;;;;;;;4.40;4.00;;;22.60;99.90;;;;;;5034463;28;20386;-80
2023/08/19 07:08:44;;;;;;;5.13;4.10;;;22.80;99.90;;;;;;5035435;28;20469;-81
2023/08/19 07:11:09;;;;;;;5.22;4.22;;;22.80;99.90;;;;;;5038078;28;20410;-80
2023/08/19 07:13:36;;;;;;;4.82;3.70;;;23.10;99.90;;;;;;5049720;28;20399;-80
2023/08/19 07:16:03;;;;;;;5.55;4.38;;;23.20;99.90;;;;;;5034062;28;20449;-80
2023/08/19 07:18:35;;;;;;;5.50;4.50;;;23.30;99.90;;;;;;5034308;28;20453;-80
2023/08/19 07:21:02;;;;;;;6.03;4.30;;;23.50;99.90;;;;;;5036948;28;20379;-80
2023/08/19 07:23:28;;;;;;;5.00;4.57;;;23.60;99.90;;;;;;5039560;28;20444;-81
2023/08/19 07:25:54;;;;;;;4.55;4.13;;;23.90;99.90;;;;;;5055710;28;20389;-81
2023/08/19 07:28:23;;;;;;;6.63;4.07;;;24.10;99.90;;;;;;5055400;28;20388;-81
2023/08/19 07:30:49;;;;;;;4.60;4.10;;;24.20;99.90;;;;;;5054347;28;20424;-81
2023/08/19 07:33:14;;;;;;;4.60;4.20;;;24.50;99.90;;;;;;5054929;28;20385;-80
2023/08/19 07:35:40;;;;;;;4.20;3.90;;;24.70;99.90;;;;;;5055119;28;20411;-81
2023/08/19 07:38:06;;;;;;;8.60;4.20;;;24.90;99.90;;;;;;5054754;28;20393;-81
2023/08/19 07:40:32;;;;;;;5.45;3.85;;;25.10;99.90;;;;;;5047731;28;20467;-81
2023/08/19 07:42:58;;;;;;;6.88;4.13;;;25.20;99.90;;;;;;5033881;28;20407;-81
2023/08/19 07:45:23;;;;;;;4.83;4.00;;;25.20;99.90;;;;;;5039343;28;20484;-81
2023/08/19 07:47:49;;;;;;;5.15;4.20;;;25.40;99.90;;;;;;5054180;28;20389;-81
2023/08/19 07:50:14;;;;;;;4.40;3.50;;;25.60;99.90;;;;;;5054442;28;20447;-81
2023/08/19 07:52:40;;;;;;;4.78;4.20;;;25.80;99.90;;;;;;5056108;28;20386;-80
2023/08/19 07:55:05;;;;;;;4.10;3.60;;;26.10;99.90;;;;;;5054660;28;20393;-81
2023/08/19 07:57:31;;;;;;;4.82;3.80;;;26.20;99.90;;;;;;5068175;28;20397;-80
2023/08/19 07:59:56;;;;;;;4.00;3.70;;;26.60;99.90;;;;;;5074961;28;20377;-80
2023/08/19 08:02:22;;;;;;;4.30;3.90;;;26.70;99.90;;;;;;5075777;28;20465;-82
2023/08/19 08:04:48;;;;;;;5.13;3.70;;;27.10;99.90;;;;;;5074650;28;20419;-80
2023/08/19 08:07:13;;;;;;;4.90;3.50;;;27.20;99.90;;;;;;5065712;28;20414;-79
2023/08/19 08:09:39;;;;;;;3.80;3.50;;;27.00;99.90;;;;;;5055370;28;20426;-80
2023/08/19 08:12:05;;;;;;;4.60;3.00;;;27.10;99.90;;;;;;5065178;28;20409;-81
2023/08/19 08:14:30;;;;;;;4.10;3.70;;;27.20;99.90;;;;;;5076748;28;20707;-82
2023/08/19 08:16:56;;;;;;;5.37;3.53;;;27.10;99.90;;;;;;5076177;28;20394;-82
2023/08/19 08:19:25;;;;;;;4.05;3.40;;;27.10;99.90;;;;;;5076254;28;20381;-82
2023/08/19 08:21:51;;;;;;;4.13;3.47;;;27.20;99.90;;;;;;5070191;28;20403;-81
2023/08/19 08:24:17;;;;;;;3.60;3.20;;;27.50;99.90;;;;;;5070887;28;20398;-81
2023/08/19 08:26:43;;;;;;;3.80;3.40;;;27.70;99.90;;;;;;5077472;28;20448;-81
2023/08/19 08:29:08;;;;;;;3.40;3.10;;;27.90;99.90;;;;;;5075637;28;20392;-81
2023/08/19 08:31:34;;;;;;;3.60;3.30;;;27.80;99.90;;;;;;5075328;28;20401;-80
2023/08/19 08:33:59;;;;;;;4.38;3.38;;;27.90;99.90;;;;;;5071797;28;20416;-81
2023/08/19 08:36:25;;;;;;;4.22;3.42;;;28.00;99.90;;;;;;5076542;28;20477;-80
2023/08/19 08:38:50;;;;;;;3.53;3.10;;;28.50;1.00;;;;;;5074685;28;20879;-81
2023/08/19 08:41:16;;;;;;;4.30;3.38;;;28.80;1.00;;;;;;5076509;28;20401;-81
2023/08/19 08:43:45;;;;;;;3.50;3.20;;;29.00;1.00;;;;;;5073993;28;20467;-79
2023/08/19 08:46:12;;;;;;;4.25;3.00;;;29.20;99.90;;;;;;5075189;28;20381;-81
2023/08/19 08:48:38;;;;;;;4.55;3.08;;;29.30;99.90;;;;;;5063610;28;20409;-81
2023/08/19 08:51:04;;;;;;;3.28;2.97;;;29.40;99.90;;;;;;5053797;28;20423;-81
2023/08/19 08:53:30;;;;;;;4.75;3.10;;;29.70;99.90;;;;;;5044325;28;20395;-81
2023/08/19 08:55:58;;;;;;;4.07;3.60;;;29.90;99.90;;;;;;5046947;28;20474;-83
2023/08/19 08:58:23;;;;;;;5.47;3.63;;;29.50;99.90;;;;;;5024490;28;20473;-80
2023/08/19 09:00:49;;;;;;;3.55;3.00;;;29.70;99.90;;;;;;5024867;28;20393;-80
2023/08/19 09:03:19;;;;;;;3.87;3.47;;;30.00;99.90;;;;;;5034007;28;20388;-82
2023/08/19 09:05:50;;;;;;;5.80;3.60;;;29.90;99.90;;;;;;5045215;28;20415;-80
2023/08/19 09:08:20;;;;;;;3.50;3.20;;;30.00;99.90;;;;;;5043633;28;20926;-82
2023/08/19 09:10:48;;;;;;;5.20;3.00;;;30.30;99.90;;;;;;5062323;28;20392;-81
2023/08/19 09:13:23;;;;;;;6.25;3.20;;;30.30;99.90;;;;;;5064874;28;20381;-81
2023/08/19 09:15:49;;;;;;;4.78;3.30;;;30.40;99.90;;;;;;5047508;28;20456;-81
2023/08/19 09:18:16;;;;;;;5.25;3.15;;;30.30;99.90;;;;;;5041679;28;20434;-84
2023/08/19 09:20:42;;;;;;;3.20;2.90;;;30.30;99.90;;;;;;5044107;28;20494;-80
2023/08/19 09:23:09;;;;;;;4.68;3.25;;;30.50;99.90;;;;;;5046323;28;20394;-79
2023/08/19 09:25:35;;;;;;;3.20;2.90;;;30.60;99.90;;;;;;5042671;28;20469;-82
2023/08/19 09:28:00;;;;;;;5.70;3.00;;;30.70;99.90;;;;;;5042702;28;20399;-80
2023/08/19 09:30:35;;;;;;;3.77;3.10;;;30.90;99.90;;;;;;5042626;28;20419;-80
2023/08/19 09:33:02;;;;;;;4.65;3.35;;;31.10;99.90;;;;;;5040848;28;20421;-80
2023/08/19 09:35:38;;;;;;;6.85;2.55;;;31.00;99.90;;;;;;5023261;28;20405;-80
2023/08/19 09:38:04;;;;;;;2.65;2.45;;;31.10;99.90;;;;;;5029238;28;20973;-82
2023/08/19 09:40:30;;;;;;;5.70;2.80;;;31.00;99.90;;;;;;5042649;28;20431;-80
2023/08/19 09:43:00;;;;;;;3.67;2.70;;;31.00;99.90;;;;;;5041576;28;20387;-81
2023/08/19 09:45:27;;;;;;;2.90;2.70;;;31.00;99.90;;;;;;5041610;28;20491;-80
2023/08/19 09:47:53;;;;;;;4.60;3.00;;;30.90;99.90;;;;;;5040472;28;20379;-81
2023/08/19 09:50:21;;;;;;;4.13;2.80;;;30.90;99.90;;;;;;5041607;28;20486;-79
2023/08/19 09:52:58;;;;;;;3.05;2.80;;;31.00;1.00;;;;;;5047194;28;20395;-80
2023/08/19 09:55:29;;;;;;;5.40;2.80;;;30.90;1.00;;;;;;5044466;28;20490;-80
2023/08/19 09:57:56;;;;;;;3.70;3.30;;;30.80;99.90;;;;;;5045348;28;20405;-80
2023/08/19 10:00:22;;;;;;;6.88;2.70;;;30.90;1.00;;;;;;5040260;28;20462;-80
2023/08/19 10:02:48;;;;;;;4.22;3.05;;;30.90;1.00;;;;;;5038364;28;20387;-81
2023/08/19 10:05:15;;;;;;;3.90;3.23;;;30.70;99.90;;;;;;5035294;28;20390;-80
2023/08/19 10:07:47;;;;;;;6.18;2.90;;;30.80;1.00;;;;;;5036059;28;20458;-80
2023/08/19 10:10:13;;;;;;;4.35;3.10;;;30.60;1.00;;;;;;5033736;28;20391;-80
2023/08/19 10:12:40;;;;;;;3.38;3.00;;;30.80;99.90;;;;;;5039275;28;20909;-83
2023/08/19 10:15:12;;;;;;;3.17;2.88;;;30.60;57.40;;;;;;5052761;28;20400;-86
2023/08/19 10:17:41;;;;;;;2.85;2.63;;;30.70;1.00;;;;;;5024335;28;20943;-84
2023/08/19 10:20:13;;;;;;;4.30;3.20;;;30.60;1.00;;;;;;5035831;28;21266;-85
2023/08/19 10:22:43;;;;;;;3.80;2.90;;;30.70;1.00;;;;;;5035705;28;20398;-85
2023/08/19 10:25:12;;;;;;;3.78;2.88;;;30.80;1.00;;;;;;5033643;28;20436;-83
2023/08/19 10:27:38;;;;;;;3.40;3.10;;;30.70;99.90;;;;;;5032217;28;20396;-84
2023/08/19 10:30:22;;;;;;;4.00;2.77;;;30.80;1.00;;;;;;5034181;28;20390;-85
2023/08/19 10:32:48;;;;;;;4.55;3.22;;;30.90;1.00;;;;;;5031727;28;20412;-83
2023/08/19 10:35:14;;;;;;;3.60;3.00;;;31.00;1.00;;;;;;5029202;28;20418;-83
2023/08/19 10:37:43;;;;;;;4.00;3.70;;;31.00;94.10;;;;;;5041753;28;20383;-80
2023/08/19 10:40:14;;;;;;;3.40;3.10;;;31.10;1.00;;;;;;5038159;28;20403;-85
2023/08/19 10:42:40;;;;;;;3.63;3.10;;;31.10;1.00;;;;;;5031516;28;20429;-85
2023/08/19 10:45:17;;;;;;;4.20;2.72;;;31.40;99.90;;;;;;5030678;28;20418;-83
2023/08/19 10:47:42;;;;;;;3.70;3.05;;;31.50;99.90;;;;;;5034444;28;20418;-85
2023/08/19 10:50:09;;;;;;;3.38;3.08;;;31.70;1.00;;;;;;5033441;28;20473;-84
2023/08/19 10:52:39;;;;;;;5.97;3.33;;;31.70;99.90;;;;;;5032097;28;20391;-84
2023/08/19 10:55:05;;;;;;;5.30;3.00;;;31.80;99.90;;;;;;5040322;28;20393;-84
2023/08/19 10:57:31;;;;;;;5.03;3.00;;;31.80;99.90;;;;;;5045270;28;20422;-82
2023/08/19 11:00:00;;;;;;;5.03;3.07;;;32.00;99.90;;;;;;5044668;28;20401;-82
2023/08/19 11:02:27;;;;;;;7.17;3.70;;;31.90;1.00;;;;;;5056115;28;20392;-82
2023/08/19 11:04:54;;;;;;;3.30;3.00;;;32.00;99.90;;;;;;5052266;28;20472;-81
2023/08/19 11:07:20;;;;;;;4.55;3.50;;;32.10;1.00;;;;;;5055121;28;20385;-81
2023/08/19 11:09:48;;;;;;;6.03;4.03;;;32.30;99.90;;;;;;5050651;28;20410;-81
2023/08/19 11:12:19;;;;;;;3.70;3.30;;;32.50;1.00;;;;;;5035031;28;20386;-82
2023/08/19 11:14:48;;;;;;;3.53;3.05;;;32.60;1.00;;;;;;5042167;28;20448;-88
2023/08/19 11:17:15;;;;;;;6.93;3.28;;;32.70;1.00;;;;;;5033827;28;20404;-84
2023/08/19 11:19:40;;;;;;;6.75;3.50;;;32.70;42.30;;;;;;5033286;28;20417;-85
2023/08/19 11:22:10;;;;;;;6.05;3.00;;;32.80;1.00;;;;;;5034352;28;20395;-86
2023/08/19 11:24:36;;;;;;;5.70;3.80;;;33.00;1.00;;;;;;5014622;28;20404;-84
2023/08/19 11:27:02;;;;;;;3.53;3.23;;;32.90;1.00;;;;;;5012996;28;20397;-85
2023/08/19 11:29:28;;;;;;;4.03;3.10;;;33.00;1.00;;;;;;5013136;28;20764;-85
2023/08/19 11:31:54;;;;;;;5.03;3.50;;;33.20;1.00;;;;;;5014374;28;20425;-85
2023/08/19 11:34:19;;;;;;;5.10;3.50;;;33.40;1.00;;;;;;5027984;28;20391;-84
2023/08/19 11:36:46;;;;;;;3.90;3.60;;;33.50;1.00;;;;;;5032933;28;20403;-84
2023/08/19 11:39:11;;;;;;;4.60;3.47;;;33.70;1.00;;;;;;5032197;28;20390;-84
2023/08/19 11:41:37;;;;;;;6.60;3.63;;;34.30;1.00;;;;;;5033975;28;20391;-83
2023/08/19 11:44:05;;;;;;;4.93;3.50;;;34.20;1.00;;;;;;5034349;28;20415;-85
2023/08/19 11:46:32;;;;;;;3.60;3.30;;;34.70;1.00;;;;;;5032701;28;20395;-85
2023/08/19 11:48:59;;;;;;;5.05;2.92;;;34.60;99.90;;;;;;5031692;28;20391;-85
2023/08/19 11:51:28;;;;;;;3.60;3.30;;;34.10;1.00;;;;;;5033053;28;20434;-85
2023/08/19 11:54:00;;;;;;;4.70;3.20;;;34.40;1.00;;;;;;5033109;28;20387;-86
2023/08/19 11:56:26;;;;;;;3.97;3.10;;;35.10;1.00;;;;;;5032721;28;20406;-84
2023/08/19 11:58:53;;;;;;;7.70;3.67;;;35.50;1.00;;;;;;5031086;28;20432;-85
2023/08/19 12:01:20;;;;;;;4.70;3.28;;;35.00;99.90;;;;;;5032721;28;20440;-83
2023/08/19 12:03:48;;;;;;;4.97;3.42;;;34.00;1.00;;;;;;5031815;28;20754;-84
2023/08/19 12:06:14;;;;;;;4.50;3.35;;;34.00;1.00;;;;;;5025670;28;20409;-83
2023/08/19 12:08:41;;;;;;;4.88;3.28;;;33.50;1.00;;;;;;5028360;28;20395;-84
2023/08/19 12:11:07;;;;;;;6.53;3.70;;;33.20;1.00;;;;;;5027941;28;20391;-86
2023/08/19 12:13:33;;;;;;;6.68;3.70;;;33.20;1.00;;;;;;5030414;28;20446;-84
2023/08/19 12:15:58;;;;;;;8.02;3.75;;;33.00;1.00;;;;;;5029523;28;20923;-86
2023/08/19 12:18:24;;;;;;;5.43;3.60;;;33.00;99.90;;;;;;5030402;28;20430;-85
2023/08/19 12:20:52;;;;;;;7.53;3.80;;;32.80;99.90;;;;;;5034849;28;20429;-85
2023/08/19 12:23:18;;;;;;;7.22;3.80;;;32.90;99.90;;;;;;5032228;28;20383;-83
2023/08/19 12:25:54;;;;;;;5.37;3.57;;;32.80;44.20;;;;;;5030637;28;20391;-84
2023/08/19 12:28:22;;;;;;;5.90;4.10;;;32.90;1.00;;;;;;5030295;28;20839;-84
2023/08/19 12:30:48;;;;;;;7.72;3.70;;;33.00;99.90;;;;;;5030252;28;20426;-84
2023/08/19 12:33:14;;;;;;;5.07;3.30;;;32.80;1.00;;;;;;5029487;28;20819;-85
2023/08/19 12:35:41;;;;;;;5.30;3.50;;;32.90;1.00;;;;;;5029750;28;20434;-84
2023/08/19 12:38:08;;;;;;;5.63;3.70;;;32.90;1.00;;;;;;5031152;28;20883;-84
2023/08/19 12:40:34;;;;;;;3.73;3.23;;;32.80;99.90;;;;;;5030702;28;20387;-84
2023/08/19 12:43:00;;;;;;;4.97;3.30;;;33.00;32.80;;;;;;5031494;28;20433;-85
2023/08/19 12:45:27;;;;;;;4.53;3.42;;;33.00;1.00;;;;;;5027034;28;20394;-85